createdAt,value
2022-11-24T00:01:26.192Z,59.80
2022-11-24T00:04:05.177Z,58.50
2022-11-24T00:06:34.886Z,59.60
2022-11-24T00:09:04.258Z,52.90
2022-11-24T00:11:33.989Z,54.70
2022-11-24T00:14:02.637Z,53.50
2022-11-24T00:16:35.444Z,58.90
2022-11-24T00:19:06.142Z,63.10
2022-11-24T00:21:33.797Z,55.50
2022-11-24T00:24:02.252Z,62.50
2022-11-24T00:26:32.354Z,54.20
2022-11-24T00:29:02.303Z,63.40
2022-11-24T00:31:31.951Z,58.60
2022-11-24T00:34:01.766Z,55.90
2022-11-24T00:36:31.302Z,58.40
2022-11-24T00:39:01.374Z,50.80
2022-11-24T00:41:29.633Z,59.80
2022-11-24T00:43:58.312Z,52.40
2022-11-24T00:46:27.127Z,52.10
2022-11-24T00:48:55.564Z,55.40
2022-11-24T00:51:27.107Z,58.30
2022-11-24T00:53:56.350Z,57.10
2022-11-24T00:56:25.015Z,56.20
2022-11-24T00:58:52.827Z,55.80
2022-11-24T01:01:26.234Z,59.10
2022-11-24T01:03:57.325Z,53.50
2022-11-24T01:06:26.265Z,56.60
2022-11-24T01:08:54.865Z,59.10
2022-11-24T01:11:25.617Z,59.40
2022-11-24T01:13:57.713Z,67.80
2022-11-24T01:16:31.612Z,59.40
2022-11-24T01:18:59.481Z,76.00
2022-11-24T01:21:27.281Z,73.90
2022-11-24T01:23:54.979Z,82.90
2022-11-24T01:26:23.065Z,78.40
2022-11-24T01:28:58.258Z,78.20
2022-11-24T01:31:26.974Z,84.10
2022-11-24T01:33:55.189Z,75.40
2022-11-24T01:36:22.973Z,77.40
2022-11-24T01:38:50.900Z,68.60
2022-11-24T01:41:21.404Z,64.50
2022-11-24T01:43:50.247Z,65.10
2022-11-24T01:46:36.917Z,52.60
2022-11-24T01:49:08.073Z,54.80
2022-11-24T01:51:45.361Z,55.20
2022-11-24T01:54:16.804Z,64.10
2022-11-24T01:56:47.158Z,59.80
2022-11-24T01:59:17.936Z,55.10
2022-11-24T02:01:47.835Z,52.40
2022-11-24T02:04:18.445Z,55.40
2022-11-24T02:06:46.513Z,56.30
2022-11-24T02:09:44.704Z,55.80
2022-11-24T02:12:12.545Z,45.90
2022-11-24T02:14:42.240Z,60.20
2022-11-24T02:17:10.382Z,55.70
2022-11-24T02:19:40.823Z,54.40
2022-11-24T02:22:15.479Z,50.00
2022-11-24T02:25:11.920Z,52.40
2022-11-24T02:27:39.642Z,55.40
2022-11-24T02:30:40.649Z,52.80
2022-11-24T02:33:10.349Z,52.90
2022-11-24T02:35:38.037Z,55.80
2022-11-24T02:38:05.759Z,50.60
2022-11-24T02:40:33.507Z,59.10
2022-11-24T02:43:07.970Z,47.70
2022-11-24T02:45:35.774Z,52.40
2022-11-24T02:48:03.556Z,54.00
2022-11-24T02:50:31.251Z,48.10
2022-11-24T02:52:58.901Z,54.10
2022-11-24T02:55:26.813Z,55.40
2022-11-24T02:57:54.518Z,52.70
2022-11-24T03:00:22.728Z,52.90
2022-11-24T03:02:50.591Z,52.90
2022-11-24T03:05:18.666Z,49.20
2022-11-24T03:07:46.502Z,55.10
2022-11-24T03:10:14.286Z,56.40
2022-11-24T03:12:42.163Z,46.40
2022-11-24T03:15:10.625Z,51.10
2022-11-24T03:17:38.265Z,45.80
2022-11-24T03:20:06.685Z,51.60
2022-11-24T03:22:34.406Z,49.70
2022-11-24T03:25:02.179Z,51.90
2022-11-24T03:27:31.030Z,47.00
2022-11-24T03:29:59.059Z,49.50
2022-11-24T03:32:26.713Z,45.60
2022-11-24T03:34:54.500Z,54.80
2022-11-24T03:37:22.678Z,49.40
2022-11-24T03:39:50.560Z,51.30
2022-11-24T03:42:18.240Z,51.80
2022-11-24T03:44:45.921Z,55.50
2022-11-24T03:47:13.745Z,50.90
2022-11-24T03:49:41.647Z,57.00
2022-11-24T03:52:09.790Z,55.00
2022-11-24T03:54:37.466Z,55.60
2022-11-24T03:57:05.568Z,53.20
2022-11-24T03:59:33.236Z,55.60
2022-11-24T04:02:00.962Z,55.00
2022-11-24T04:04:28.772Z,57.30
2022-11-24T04:06:56.702Z,53.60
2022-11-24T04:09:24.386Z,55.60
2022-11-24T04:12:15.001Z,57.90
2022-11-24T04:14:42.634Z,59.10
2022-11-24T04:17:10.506Z,59.50
2022-11-24T04:19:38.291Z,54.30
2022-11-24T04:22:06.071Z,60.40
2022-11-24T04:24:34.093Z,52.10
2022-11-24T04:27:02.174Z,59.80
2022-11-24T04:29:30.227Z,53.90
2022-11-24T04:31:57.965Z,55.90
2022-11-24T04:34:25.716Z,60.20
2022-11-24T04:36:53.464Z,58.60
2022-11-24T04:39:25.154Z,53.20
2022-11-24T04:41:54.911Z,56.00
2022-11-24T04:44:22.662Z,52.20
2022-11-24T04:46:50.467Z,51.90
2022-11-24T04:49:18.560Z,56.00
2022-11-24T04:51:46.478Z,47.40
2022-11-24T04:54:14.496Z,54.70
2022-11-24T04:56:43.856Z,57.60
2022-11-24T04:59:15.395Z,51.10
2022-11-24T05:01:47.003Z,54.30
2022-11-24T05:04:15.887Z,51.40
2022-11-24T05:06:43.833Z,50.80
2022-11-24T05:09:16.082Z,47.90
2022-11-24T05:14:11.653Z,47.60
2022-11-24T05:16:39.590Z,58.30
2022-11-24T05:19:07.716Z,49.40
2022-11-24T05:21:35.499Z,53.10
2022-11-24T05:24:03.561Z,48.80
2022-11-24T05:26:31.346Z,47.80
2022-11-24T05:28:59.141Z,50.90
2022-11-24T05:31:27.128Z,48.20
2022-11-24T05:33:54.966Z,52.20
2022-11-24T05:36:41.605Z,53.20
2022-11-24T05:39:09.580Z,47.70
2022-11-24T05:41:37.400Z,51.60
2022-11-24T05:44:05.382Z,53.70
2022-11-24T05:46:33.259Z,54.70
2022-11-24T05:49:01.171Z,55.70
2022-11-24T05:51:30.600Z,51.70
2022-11-24T05:53:58.307Z,57.20
2022-11-24T05:56:26.048Z,50.50
2022-11-24T05:58:53.800Z,58.70
2022-11-24T06:01:21.693Z,51.10
2022-11-24T06:03:49.428Z,51.10
2022-11-24T06:06:17.298Z,57.70
2022-11-24T06:08:45.020Z,62.30
2022-11-24T06:11:18.834Z,55.80
2022-11-24T06:13:48.715Z,56.10
2022-11-24T06:16:16.843Z,55.60
2022-11-24T06:18:44.689Z,59.00
2022-11-24T06:21:12.541Z,66.10
2022-11-24T06:23:40.748Z,78.50
2022-11-24T06:26:09.369Z,88.70
2022-11-24T06:28:37.498Z,95.20
2022-11-24T06:31:06.009Z,93.60
2022-11-24T06:33:36.344Z,99.50
2022-11-24T06:36:06.486Z,81.40
2022-11-24T06:38:35.949Z,79.00
2022-11-24T06:41:09.808Z,77.60
2022-11-24T06:43:37.781Z,81.00
2022-11-24T06:46:05.946Z,84.30
2022-11-24T06:48:34.226Z,76.80
2022-11-24T06:51:04.474Z,86.50
2022-11-24T06:53:39.737Z,80.70
2022-11-24T06:56:15.750Z,77.30
2022-11-24T06:58:47.322Z,74.90
2022-11-24T07:01:22.609Z,85.00
2022-11-24T07:03:52.059Z,80.20
2022-11-24T07:06:21.865Z,75.70
2022-11-24T07:08:49.875Z,62.10
2022-11-24T07:11:20.985Z,65.80
2022-11-24T07:13:49.183Z,63.90
2022-11-24T07:16:22.405Z,62.30
2022-11-24T07:18:52.217Z,65.90
2022-11-24T07:21:21.524Z,76.30
2022-11-24T07:23:54.077Z,67.50
2022-11-24T07:26:22.793Z,77.70
2022-11-24T07:28:51.170Z,107.00
2022-11-24T07:31:21.660Z,108.80
2022-11-24T07:33:53.672Z,94.20
2022-11-24T07:36:22.478Z,87.80
2022-11-24T07:38:50.748Z,94.90
2022-11-24T07:41:19.747Z,92.60
2022-11-24T07:43:48.352Z,94.90
2022-11-24T07:46:17.709Z,95.70
2022-11-24T07:48:46.390Z,84.70
2022-11-24T07:51:14.781Z,78.40
2022-11-24T07:53:43.265Z,71.20
2022-11-24T07:56:11.147Z,68.80
2022-11-24T07:58:38.953Z,81.00
2022-11-24T08:01:15.655Z,70.60
2022-11-24T08:03:45.204Z,64.90
2022-11-24T08:06:24.999Z,72.70
2022-11-24T08:08:53.371Z,68.20
2022-11-24T08:11:21.257Z,63.70
2022-11-24T08:13:49.080Z,58.90
2022-11-24T08:16:18.230Z,58.90
2022-11-24T08:18:50.943Z,61.00
2022-11-24T08:21:19.477Z,64.60
2022-11-24T08:23:47.481Z,65.00
2022-11-24T08:26:18.798Z,59.10
2022-11-24T08:28:47.425Z,64.50
2022-11-24T08:31:18.777Z,62.40
2022-11-24T08:33:47.020Z,62.90
2022-11-24T08:36:18.062Z,63.20
2022-11-24T08:38:46.300Z,64.70
2022-11-24T08:41:15.990Z,59.20
2022-11-24T08:43:43.889Z,59.10
2022-11-24T08:46:14.144Z,59.70
2022-11-24T08:48:41.965Z,54.10
2022-11-24T08:51:12.302Z,67.70
2022-11-24T08:53:40.443Z,65.10
2022-11-24T08:56:09.329Z,60.60
2022-11-24T08:58:37.698Z,63.70
2022-11-24T09:01:07.626Z,63.60
2022-11-24T09:03:35.758Z,61.20
2022-11-24T09:06:04.068Z,70.80
2022-11-24T09:08:33.205Z,69.30
2022-11-24T09:11:02.606Z,69.80
2022-11-24T09:13:30.494Z,69.90
2022-11-24T09:16:06.833Z,64.10
2022-11-24T09:18:39.849Z,70.10
2022-11-24T09:21:08.213Z,65.80
2022-11-24T09:23:36.611Z,68.50
2022-11-24T09:26:06.395Z,62.70
2022-11-24T09:28:34.638Z,66.70
2022-11-24T09:31:04.661Z,64.30
2022-11-24T09:33:33.575Z,59.70
2022-11-24T09:36:01.538Z,63.70
2022-11-24T09:38:29.736Z,67.10
2022-11-24T09:41:15.157Z,53.40
2022-11-24T09:43:56.827Z,63.00
2022-11-24T09:46:33.827Z,64.60
2022-11-24T09:49:03.597Z,56.40
2022-11-24T09:51:32.402Z,61.10
2022-11-24T09:54:09.232Z,60.40
2022-11-24T09:56:38.602Z,59.10
2022-11-24T09:59:18.765Z,54.50
2022-11-24T10:01:48.092Z,57.30
2022-11-24T10:04:28.602Z,57.90
2022-11-24T10:06:56.566Z,62.90
2022-11-24T10:09:45.405Z,60.90
2022-11-24T10:12:30.855Z,61.30
2022-11-24T10:15:25.842Z,58.90
2022-11-24T10:18:16.733Z,60.50
2022-11-24T10:20:54.926Z,63.30
2022-11-24T10:23:56.698Z,66.80
2022-11-24T10:26:38.699Z,69.90
2022-11-24T10:29:14.131Z,58.90
2022-11-24T10:31:43.341Z,66.30
2022-11-24T10:34:27.846Z,62.60
2022-11-24T10:37:23.851Z,69.00
2022-11-24T10:40:04.119Z,61.10
2022-11-24T10:42:37.245Z,59.90
2022-11-24T10:45:31.700Z,71.70
2022-11-24T10:47:59.495Z,62.60
2022-11-24T10:50:31.441Z,62.20
2022-11-24T10:53:08.588Z,61.40
2022-11-24T10:55:54.713Z,64.00
2022-11-24T10:58:36.060Z,64.70
2022-11-24T11:01:15.101Z,71.30
2022-11-24T11:03:48.997Z,67.60
2022-11-24T11:06:30.559Z,72.90
2022-11-24T11:09:07.513Z,65.20
2022-11-24T11:11:36.974Z,71.50
2022-11-24T11:14:06.628Z,69.00
2022-11-24T11:20:58.593Z,63.40
2022-11-24T11:23:31.788Z,69.90
2022-11-24T11:26:22.605Z,68.30
2022-11-24T11:34:50.672Z,59.70
2022-11-24T11:37:20.314Z,60.00
2022-11-24T11:39:50.682Z,66.50
2022-11-24T11:43:03.786Z,62.40
2022-11-24T11:45:29.975Z,65.30
2022-11-24T11:48:01.054Z,68.10
2022-11-24T11:51:14.878Z,65.40
2022-11-24T11:53:36.996Z,74.60
2022-11-24T11:56:27.057Z,68.80
2022-11-24T11:59:23.046Z,71.20
2022-11-24T12:02:09.531Z,65.10
2022-11-24T12:04:53.698Z,65.00
2022-11-24T12:07:36.780Z,64.10
2022-11-24T12:10:10.361Z,67.00
2022-11-24T12:12:47.784Z,67.10
2022-11-24T12:15:34.098Z,72.90
2022-11-24T12:18:40.358Z,69.60
2022-11-24T12:21:27.060Z,68.30
2022-11-24T12:23:58.040Z,66.10
2022-11-24T12:26:58.265Z,73.60
2022-11-24T12:29:48.166Z,68.10
2022-11-24T12:32:41.172Z,66.30
2022-11-24T12:35:20.559Z,68.30
2022-11-24T12:38:25.351Z,66.40
2022-11-24T12:41:39.750Z,69.40
2022-11-24T12:43:56.563Z,70.70
2022-11-24T12:47:03.751Z,76.90
2022-11-24T12:49:45.700Z,69.20
2022-11-24T12:52:28.975Z,67.90
2022-11-24T12:54:56.968Z,62.20
2022-11-24T12:57:38.838Z,66.00
2022-11-24T13:00:24.111Z,60.70
2022-11-24T13:03:00.941Z,70.60
2022-11-24T13:05:46.083Z,63.30
2022-11-24T13:08:14.414Z,73.00
2022-11-24T13:10:58.368Z,74.00
2022-11-24T13:13:30.273Z,61.20
2022-11-24T13:16:35.034Z,70.20
2022-11-24T13:18:57.273Z,70.80
2022-11-24T13:21:31.315Z,61.30
2022-11-24T13:24:02.400Z,56.20
2022-11-24T13:26:33.581Z,61.70
2022-11-24T13:29:23.847Z,56.80
2022-11-24T13:31:57.106Z,60.40
2022-11-24T13:34:43.172Z,60.00
2022-11-24T13:37:28.881Z,57.00
2022-11-24T13:40:13.141Z,60.90
2022-11-24T13:42:57.299Z,64.20
2022-11-24T13:45:41.534Z,58.60
2022-11-24T13:48:22.355Z,58.70
2022-11-24T13:50:50.718Z,62.40
2022-11-24T13:53:18.945Z,55.60
2022-11-24T13:56:00.737Z,66.40
2022-11-24T13:58:36.489Z,63.20
2022-11-24T14:01:11.412Z,63.50
2022-11-24T14:04:43.259Z,62.00
2022-11-24T14:07:08.716Z,59.10
2022-11-24T14:09:42.261Z,64.60
2022-11-24T14:12:17.243Z,60.40
2022-11-24T14:14:47.980Z,55.00
2022-11-24T14:17:15.661Z,60.90
2022-11-24T14:19:48.755Z,58.10
2022-11-24T14:22:17.176Z,63.70
2022-11-24T14:24:47.035Z,61.20
2022-11-24T14:27:17.138Z,68.10
2022-11-24T14:29:59.802Z,62.60
2022-11-24T14:32:27.825Z,61.80
2022-11-24T14:34:56.998Z,59.30
2022-11-24T14:37:24.947Z,65.10
2022-11-24T14:39:52.812Z,58.90
2022-11-24T14:42:23.139Z,57.90
2022-11-24T14:44:56.755Z,66.60
2022-11-24T14:47:31.394Z,59.60
2022-11-24T14:50:20.103Z,76.00
2022-11-24T14:52:58.200Z,73.80
2022-11-24T14:55:29.379Z,65.30
2022-11-24T14:57:58.565Z,52.70
2022-11-24T15:00:31.656Z,56.90
2022-11-24T15:03:02.193Z,57.90
2022-11-24T15:05:58.392Z,55.30
2022-11-24T15:08:27.964Z,67.90
2022-11-24T15:11:00.867Z,70.20
2022-11-24T15:13:31.086Z,70.70
2022-11-24T15:16:03.148Z,71.60
2022-11-24T15:21:01.735Z,74.20
2022-11-24T15:23:33.449Z,68.60
2022-11-24T15:26:01.372Z,64.30
2022-11-24T15:28:32.677Z,57.50
2022-11-24T15:31:06.416Z,58.90
2022-11-24T15:33:34.237Z,55.20
2022-11-24T15:36:02.310Z,51.40
2022-11-24T15:38:30.081Z,56.10
2022-11-24T15:40:59.311Z,50.00
2022-11-24T15:43:32.359Z,56.30
2022-11-24T15:46:01.519Z,54.80
2022-11-24T15:48:29.659Z,50.70
2022-11-24T15:50:58.959Z,48.00
2022-11-24T15:53:45.724Z,49.40
2022-11-24T15:56:33.083Z,57.20
2022-11-24T15:59:01.874Z,52.00
2022-11-24T16:01:31.611Z,54.00
2022-11-24T16:04:00.167Z,56.50
2022-11-24T16:06:27.972Z,66.80
2022-11-24T16:08:55.818Z,61.90
2022-11-24T16:11:23.742Z,60.30
2022-11-24T16:13:53.948Z,62.80
2022-11-24T16:16:23.377Z,55.50
2022-11-24T16:18:51.206Z,59.70
2022-11-24T16:21:18.951Z,60.30
2022-11-24T16:23:47.885Z,63.60
2022-11-24T16:26:15.747Z,58.30
2022-11-24T16:28:45.317Z,57.30
2022-11-24T16:31:15.795Z,56.40
2022-11-24T16:33:47.101Z,62.90
2022-11-24T16:36:15.239Z,81.50
2022-11-24T16:38:43.189Z,105.00
2022-11-24T16:41:11.562Z,95.70
2022-11-24T16:43:39.508Z,90.70
2022-11-24T16:46:23.726Z,69.20
2022-11-24T16:48:55.196Z,73.60
2022-11-24T16:51:23.882Z,59.60
2022-11-24T16:53:59.884Z,65.50
2022-11-24T16:56:28.922Z,61.20
2022-11-24T16:58:57.087Z,56.90
2022-11-24T17:01:26.132Z,60.40
2022-11-24T17:03:54.041Z,69.20
2022-11-24T17:06:21.983Z,67.30
2022-11-24T17:08:50.027Z,61.20
2022-11-24T17:11:20.699Z,60.00
2022-11-24T17:13:49.236Z,64.70
2022-11-24T17:16:19.847Z,67.90
2022-11-24T17:18:49.435Z,73.60
2022-11-24T17:21:22.907Z,82.60
2022-11-24T17:23:55.334Z,88.60
2022-11-24T17:26:23.870Z,94.80
2022-11-24T17:28:52.022Z,117.50
2022-11-24T17:31:27.611Z,118.60
2022-11-24T17:33:57.216Z,119.90
2022-11-24T17:36:26.385Z,114.00
2022-11-24T17:38:54.482Z,120.20
2022-11-24T17:41:22.651Z,102.10
2022-11-24T17:43:51.972Z,108.50
2022-11-24T17:46:19.924Z,103.20
2022-11-24T17:48:48.032Z,107.70
2022-11-24T17:51:19.234Z,111.10
2022-11-24T17:53:49.463Z,130.70
2022-11-24T17:56:25.529Z,161.80
2022-11-24T17:59:00.027Z,160.90
2022-11-24T18:01:30.190Z,157.10
2022-11-24T18:04:01.254Z,141.30
2022-11-24T18:06:29.299Z,128.40
2022-11-24T18:08:58.032Z,111.80
2022-11-24T18:11:31.333Z,95.10
2022-11-24T18:14:03.041Z,93.60
2022-11-24T18:16:32.520Z,69.30
2022-11-24T18:19:11.361Z,74.40
2022-11-24T18:21:41.279Z,72.60
2022-11-24T18:24:10.262Z,81.50
2022-11-24T18:26:39.366Z,66.50
2022-11-24T18:29:07.823Z,63.40
2022-11-24T18:31:36.321Z,75.20
2022-11-24T18:34:05.643Z,74.90
2022-11-24T18:36:33.755Z,72.00
2022-11-24T18:39:03.539Z,71.00
2022-11-24T18:41:32.019Z,73.20
2022-11-24T18:44:03.020Z,71.50
2022-11-24T18:46:30.816Z,74.00
2022-11-24T18:48:59.204Z,65.50
2022-11-24T18:51:27.291Z,70.40
2022-11-24T18:53:55.456Z,70.70
2022-11-24T18:56:23.933Z,72.20
2022-11-24T18:58:56.830Z,75.70
2022-11-24T19:01:27.327Z,86.70
2022-11-24T19:04:00.671Z,88.80
2022-11-24T19:06:32.628Z,81.60
2022-11-24T19:09:10.578Z,83.90
2022-11-24T19:11:40.518Z,79.90
2022-11-24T19:14:11.012Z,72.50
2022-11-24T19:16:39.466Z,72.00
2022-11-24T19:19:07.866Z,74.30
2022-11-24T19:21:42.482Z,73.60
2022-11-24T19:24:11.144Z,73.00
2022-11-24T19:26:39.847Z,65.80
2022-11-24T19:29:08.381Z,69.90
2022-11-24T19:31:39.350Z,61.90
2022-11-24T19:34:08.078Z,73.60
2022-11-24T19:36:36.462Z,71.90
2022-11-24T19:39:05.257Z,73.10
2022-11-24T19:41:34.223Z,70.10
2022-11-24T19:44:02.012Z,71.90
2022-11-24T19:46:30.193Z,72.70
2022-11-24T19:49:01.789Z,71.00
2022-11-24T19:51:31.612Z,78.10
2022-11-24T19:54:00.352Z,74.00
2022-11-24T19:56:30.749Z,77.50
2022-11-24T19:58:58.712Z,69.80
2022-11-24T20:01:28.817Z,70.70
2022-11-24T20:04:01.302Z,79.20
2022-11-24T20:06:31.907Z,77.00
2022-11-24T20:09:00.784Z,89.30
2022-11-24T20:11:29.335Z,91.90
2022-11-24T20:13:57.925Z,98.00
2022-11-24T20:16:31.117Z,91.30
2022-11-24T20:19:07.533Z,96.20
2022-11-24T20:21:36.969Z,92.40
2022-11-24T20:24:12.380Z,96.20
2022-11-24T20:26:46.674Z,93.10
2022-11-24T20:29:15.443Z,92.80
2022-11-24T20:31:48.952Z,89.00
2022-11-24T20:34:17.742Z,84.60
2022-11-24T20:36:46.981Z,95.20
2022-11-24T20:39:19.597Z,90.10
2022-11-24T20:41:47.472Z,90.50
2022-11-24T20:44:18.317Z,83.10
2022-11-24T20:46:46.643Z,94.50
2022-11-24T20:49:17.199Z,98.90
2022-11-24T20:51:47.758Z,97.30
2022-11-24T20:54:17.660Z,93.70
2022-11-24T20:56:46.559Z,94.20
2022-11-24T20:59:21.445Z,104.70
2022-11-24T21:01:50.350Z,98.60
2022-11-24T21:04:21.450Z,94.50
2022-11-24T21:06:49.936Z,101.80
2022-11-24T21:09:18.456Z,100.70
2022-11-24T21:11:47.259Z,96.00
2022-11-24T21:14:15.619Z,94.60
2022-11-24T21:16:43.979Z,90.60
2022-11-24T21:19:14.238Z,97.20
2022-11-24T21:21:43.275Z,98.00
2022-11-24T21:24:16.314Z,85.90
2022-11-24T21:26:47.540Z,83.70
2022-11-24T21:29:18.839Z,87.40
2022-11-24T21:31:46.802Z,85.50
2022-11-24T21:34:16.640Z,89.90
2022-11-24T21:36:45.141Z,87.70
2022-11-24T21:39:15.869Z,77.70
2022-11-24T21:41:43.780Z,92.60
2022-11-24T21:44:13.382Z,82.80
2022-11-24T21:46:46.256Z,88.00
2022-11-24T21:49:17.283Z,86.80
2022-11-24T21:51:45.006Z,95.40
2022-11-24T21:54:12.843Z,90.30
2022-11-24T21:56:40.624Z,90.00
2022-11-24T21:59:08.556Z,91.00
2022-11-24T22:01:36.342Z,89.80
2022-11-24T22:04:04.690Z,85.20
2022-11-24T22:06:33.266Z,88.00
2022-11-24T22:09:01.231Z,96.50
2022-11-24T22:11:29.014Z,107.90
2022-11-24T22:13:56.740Z,99.20
2022-11-24T22:16:25.558Z,94.50
2022-11-24T22:18:53.429Z,100.60
2022-11-24T22:21:30.646Z,107.80
2022-11-24T22:23:58.796Z,95.20
2022-11-24T22:26:27.598Z,105.00
2022-11-24T22:28:56.637Z,111.20
2022-11-24T22:31:26.495Z,110.80
2022-11-24T22:33:55.453Z,119.60
2022-11-24T22:36:25.082Z,111.30
2022-11-24T22:39:03.163Z,109.10
2022-11-24T22:41:34.979Z,97.50
2022-11-24T22:44:03.001Z,100.30
2022-11-24T22:46:31.910Z,101.00
2022-11-24T22:49:00.910Z,93.00
2022-11-24T22:51:33.469Z,97.60
2022-11-24T22:54:02.945Z,103.50
2022-11-24T22:56:32.547Z,94.70
2022-11-24T22:59:01.517Z,96.60
2022-11-24T23:01:30.584Z,87.10
2022-11-24T23:03:58.388Z,100.90
2022-11-24T23:06:28.765Z,99.70
2022-11-24T23:08:57.955Z,99.00
2022-11-24T23:11:34.862Z,97.30
2022-11-24T23:14:04.000Z,101.10
2022-11-24T23:16:31.795Z,98.90
2022-11-24T23:18:59.774Z,103.10
2022-11-24T23:21:29.321Z,99.90
2022-11-24T23:23:58.900Z,110.50
2022-11-24T23:26:29.920Z,101.00
2022-11-24T23:28:57.607Z,96.80
2022-11-24T23:31:30.269Z,93.00
2022-11-24T23:33:59.722Z,94.90
2022-11-24T23:36:28.238Z,87.70
2022-11-24T23:38:56.362Z,97.70
2022-11-24T23:41:25.358Z,91.20
2022-11-24T23:43:53.203Z,96.80
2022-11-24T23:46:23.013Z,86.90
2022-11-24T23:48:52.902Z,85.60
2022-11-24T23:51:29.435Z,87.20
2022-11-24T23:53:58.121Z,93.50
2022-11-24T23:56:32.307Z,90.60
2022-11-24T23:59:00.975Z,85.10
